sensor_id;sensor_type;location;lat;lon;timestamp;P1;durP1;ratioP1;P2;durP2;ratioP2
71503;SDS011;59323;50.874;7.028;2023-12-14T00:01:01;13.23;;;4.30;;
71503;SDS011;59323;50.874;7.028;2023-12-14T00:03:53;13.95;;;5.28;;
71503;SDS011;59323;50.874;7.028;2023-12-14T00:06:32;14.32;;;5.13;;
71503;SDS011;59323;50.874;7.028;2023-12-14T00:12:45;14.73;;;4.80;;
71503;SDS011;59323;50.874;7.028;2023-12-14T00:15:29;19.07;;;6.20;;
71503;SDS011;59323;50.874;7.028;2023-12-14T00:18:16;15.73;;;5.60;;
71503;SDS011;59323;50.874;7.028;2023-12-14T00:21:39;15.18;;;5.47;;
71503;SDS011;59323;50.874;7.028;2023-12-14T00:27:36;15.98;;;5.72;;
71503;SDS011;59323;50.874;7.028;2023-12-14T00:30:17;21.53;;;7.77;;
71503;SDS011;59323;50.874;7.028;2023-12-14T00:33:50;20.25;;;7.75;;
71503;SDS011;59323;50.874;7.028;2023-12-14T00:36:56;24.10;;;9.63;;
71503;SDS011;59323;50.874;7.028;2023-12-14T00:40:16;26.50;;;9.45;;
71503;SDS011;59323;50.874;7.028;2023-12-14T00:43:20;30.65;;;10.40;;
71503;SDS011;59323;50.874;7.028;2023-12-14T00:46:17;26.07;;;10.83;;
71503;SDS011;59323;50.874;7.028;2023-12-14T00:48:58;28.67;;;11.02;;
71503;SDS011;59323;50.874;7.028;2023-12-14T00:55:46;30.35;;;11.25;;
71503;SDS011;59323;50.874;7.028;2023-12-14T00:58:17;25.55;;;11.32;;
71503;SDS011;59323;50.874;7.028;2023-12-14T01:01:06;32.67;;;12.87;;
71503;SDS011;59323;50.874;7.028;2023-12-14T01:04:20;36.60;;;13.82;;
71503;SDS011;59323;50.874;7.028;2023-12-14T01:10:00;37.40;;;12.55;;
71503;SDS011;59323;50.874;7.028;2023-12-14T01:16:50;39.63;;;13.40;;
71503;SDS011;59323;50.874;7.028;2023-12-14T01:20:01;42.88;;;13.93;;
71503;SDS011;59323;50.874;7.028;2023-12-14T01:23:04;41.20;;;14.50;;
71503;SDS011;59323;50.874;7.028;2023-12-14T01:26:30;47.83;;;14.73;;
71503;SDS011;59323;50.874;7.028;2023-12-14T01:29:55;49.35;;;15.35;;
71503;SDS011;59323;50.874;7.028;2023-12-14T01:36:58;53.78;;;16.35;;
71503;SDS011;59323;50.874;7.028;2023-12-14T01:40:30;48.75;;;15.75;;
71503;SDS011;59323;50.874;7.028;2023-12-14T01:43:59;50.03;;;15.52;;
71503;SDS011;59323;50.874;7.028;2023-12-14T03:42:59;41.03;;;13.82;;
71503;SDS011;59323;50.874;7.028;2023-12-14T03:45:48;41.42;;;13.25;;
71503;SDS011;59323;50.874;7.028;2023-12-14T03:49:25;43.87;;;14.20;;
71503;SDS011;59323;50.874;7.028;2023-12-14T03:52:57;38.72;;;13.02;;
71503;SDS011;59323;50.874;7.028;2023-12-14T04:06:31;38.97;;;12.70;;
71503;SDS011;59323;50.874;7.028;2023-12-14T04:18:41;42.65;;;15.20;;
71503;SDS011;59323;50.874;7.028;2023-12-14T04:21:53;37.45;;;14.13;;
71503;SDS011;59323;50.874;7.028;2023-12-14T04:27:54;34.37;;;13.50;;
71503;SDS011;59323;50.874;7.028;2023-12-14T04:30:49;30.23;;;12.10;;
71503;SDS011;59323;50.874;7.028;2023-12-14T04:33:23;24.23;;;10.55;;
71503;SDS011;59323;50.874;7.028;2023-12-14T04:36:08;27.42;;;11.02;;
71503;SDS011;59323;50.874;7.028;2023-12-14T04:38:40;28.23;;;11.13;;
71503;SDS011;59323;50.874;7.028;2023-12-14T04:41:25;26.87;;;11.40;;
71503;SDS011;59323;50.874;7.028;2023-12-14T04:44:31;27.55;;;11.57;;
71503;SDS011;59323;50.874;7.028;2023-12-14T04:53:47;26.10;;;10.73;;
71503;SDS011;59323;50.874;7.028;2023-12-14T05:21:03;34.47;;;13.18;;
71503;SDS011;59323;50.874;7.028;2023-12-14T05:28:22;33.92;;;12.13;;
71503;SDS011;59323;50.874;7.028;2023-12-14T05:31:38;35.47;;;12.83;;
71503;SDS011;59323;50.874;7.028;2023-12-14T05:34:42;35.28;;;11.95;;
71503;SDS011;59323;50.874;7.028;2023-12-14T05:41:32;38.65;;;12.43;;
71503;SDS011;59323;50.874;7.028;2023-12-14T05:48:52;38.53;;;12.20;;
71503;SDS011;59323;50.874;7.028;2023-12-14T06:19:49;36.13;;;12.57;;
71503;SDS011;59323;50.874;7.028;2023-12-14T06:27:17;40.17;;;12.27;;
71503;SDS011;59323;50.874;7.028;2023-12-14T06:30:25;37.28;;;12.88;;
71503;SDS011;59323;50.874;7.028;2023-12-14T06:33:47;36.60;;;12.25;;
71503;SDS011;59323;50.874;7.028;2023-12-14T06:49:45;35.60;;;11.13;;
71503;SDS011;59323;50.874;7.028;2023-12-14T06:52:18;36.42;;;12.63;;
71503;SDS011;59323;50.874;7.028;2023-12-14T06:54:43;35.08;;;13.20;;
71503;SDS011;59323;50.874;7.028;2023-12-14T06:57:23;39.77;;;13.57;;
71503;SDS011;59323;50.874;7.028;2023-12-14T06:59:50;45.10;;;13.65;;
71503;SDS011;59323;50.874;7.028;2023-12-14T07:02:15;39.27;;;14.00;;
71503;SDS011;59323;50.874;7.028;2023-12-14T07:04:51;38.80;;;13.70;;
71503;SDS011;59323;50.874;7.028;2023-12-14T07:07:30;45.72;;;14.07;;
71503;SDS011;59323;50.874;7.028;2023-12-14T07:10:03;42.88;;;13.52;;
71503;SDS011;59323;50.874;7.028;2023-12-14T07:12:32;43.13;;;14.15;;
71503;SDS011;59323;50.874;7.028;2023-12-14T07:14:57;45.97;;;14.97;;
71503;SDS011;59323;50.874;7.028;2023-12-14T07:17:23;42.35;;;14.90;;
71503;SDS011;59323;50.874;7.028;2023-12-14T07:20:10;45.67;;;16.10;;
71503;SDS011;59323;50.874;7.028;2023-12-14T07:22:58;47.83;;;14.77;;
71503;SDS011;59323;50.874;7.028;2023-12-14T07:25:23;49.42;;;15.63;;
71503;SDS011;59323;50.874;7.028;2023-12-14T07:27:49;49.63;;;16.60;;
71503;SDS011;59323;50.874;7.028;2023-12-14T07:30:14;49.73;;;16.20;;
71503;SDS011;59323;50.874;7.028;2023-12-14T07:32:40;51.75;;;17.13;;
71503;SDS011;59323;50.874;7.028;2023-12-14T07:35:17;55.50;;;17.97;;
71503;SDS011;59323;50.874;7.028;2023-12-14T07:37:49;62.13;;;17.90;;
71503;SDS011;59323;50.874;7.028;2023-12-14T07:40:21;48.50;;;16.02;;
71503;SDS011;59323;50.874;7.028;2023-12-14T07:42:46;57.07;;;17.27;;
71503;SDS011;59323;50.874;7.028;2023-12-14T07:45:12;52.05;;;16.95;;
71503;SDS011;59323;50.874;7.028;2023-12-14T07:47:58;50.20;;;15.07;;
71503;SDS011;59323;50.874;7.028;2023-12-14T07:50:25;49.65;;;14.80;;
71503;SDS011;59323;50.874;7.028;2023-12-14T07:55:46;57.35;;;16.30;;
71503;SDS011;59323;50.874;7.028;2023-12-14T07:58:14;55.50;;;16.67;;
71503;SDS011;59323;50.874;7.028;2023-12-14T08:00:42;61.80;;;16.30;;
71503;SDS011;59323;50.874;7.028;2023-12-14T08:03:08;55.97;;;16.42;;
71503;SDS011;59323;50.874;7.028;2023-12-14T08:05:36;53.53;;;14.77;;
71503;SDS011;59323;50.874;7.028;2023-12-14T08:08:02;46.90;;;14.37;;
71503;SDS011;59323;50.874;7.028;2023-12-14T08:10:31;51.60;;;15.07;;
71503;SDS011;59323;50.874;7.028;2023-12-14T08:12:59;43.00;;;13.55;;
71503;SDS011;59323;50.874;7.028;2023-12-14T08:15:25;48.58;;;14.07;;
71503;SDS011;59323;50.874;7.028;2023-12-14T08:17:52;45.75;;;13.15;;
71503;SDS011;59323;50.874;7.028;2023-12-14T08:20:27;39.63;;;12.25;;
71503;SDS011;59323;50.874;7.028;2023-12-14T08:22:59;37.70;;;10.90;;
71503;SDS011;59323;50.874;7.028;2023-12-14T08:25:44;36.58;;;9.77;;
71503;SDS011;59323;50.874;7.028;2023-12-14T08:28:39;36.05;;;10.52;;
71503;SDS011;59323;50.874;7.028;2023-12-14T08:31:13;30.83;;;9.85;;
71503;SDS011;59323;50.874;7.028;2023-12-14T08:33:42;32.00;;;9.70;;
71503;SDS011;59323;50.874;7.028;2023-12-14T08:36:09;30.75;;;8.30;;
71503;SDS011;59323;50.874;7.028;2023-12-14T08:38:35;28.87;;;8.77;;
71503;SDS011;59323;50.874;7.028;2023-12-14T08:41:00;24.20;;;7.23;;
71503;SDS011;59323;50.874;7.028;2023-12-14T08:43:32;26.77;;;9.27;;
71503;SDS011;59323;50.874;7.028;2023-12-14T08:46:18;26.27;;;9.57;;
71503;SDS011;59323;50.874;7.028;2023-12-14T08:48:43;25.90;;;9.00;;
71503;SDS011;59323;50.874;7.028;2023-12-14T08:51:09;28.40;;;8.05;;
71503;SDS011;59323;50.874;7.028;2023-12-14T08:53:34;26.87;;;8.30;;
71503;SDS011;59323;50.874;7.028;2023-12-14T08:56:00;30.33;;;8.87;;
71503;SDS011;59323;50.874;7.028;2023-12-14T08:58:52;23.63;;;7.72;;
71503;SDS011;59323;50.874;7.028;2023-12-14T09:01:38;25.90;;;8.02;;
71503;SDS011;59323;50.874;7.028;2023-12-14T09:04:04;25.23;;;7.97;;
71503;SDS011;59323;50.874;7.028;2023-12-14T09:06:29;22.83;;;7.97;;
71503;SDS011;59323;50.874;7.028;2023-12-14T09:09:17;24.80;;;7.93;;
71503;SDS011;59323;50.874;7.028;2023-12-14T09:11:45;26.67;;;8.10;;
71503;SDS011;59323;50.874;7.028;2023-12-14T09:14:28;27.83;;;8.70;;
71503;SDS011;59323;50.874;7.028;2023-12-14T09:16:54;30.08;;;8.75;;
71503;SDS011;59323;50.874;7.028;2023-12-14T09:19:35;28.27;;;7.97;;
71503;SDS011;59323;50.874;7.028;2023-12-14T09:22:01;25.07;;;8.47;;
71503;SDS011;59323;50.874;7.028;2023-12-14T09:24:29;27.85;;;7.88;;
71503;SDS011;59323;50.874;7.028;2023-12-14T09:26:55;27.43;;;8.37;;
71503;SDS011;59323;50.874;7.028;2023-12-14T09:29:20;26.92;;;8.35;;
71503;SDS011;59323;50.874;7.028;2023-12-14T09:31:54;25.33;;;8.43;;
71503;SDS011;59323;50.874;7.028;2023-12-14T09:34:20;25.95;;;8.77;;
71503;SDS011;59323;50.874;7.028;2023-12-14T09:36:48;27.97;;;8.63;;
71503;SDS011;59323;50.874;7.028;2023-12-14T09:39:14;25.10;;;9.18;;
71503;SDS011;59323;50.874;7.028;2023-12-14T09:41:48;29.55;;;9.02;;
71503;SDS011;59323;50.874;7.028;2023-12-14T09:44:18;29.35;;;9.73;;
71503;SDS011;59323;50.874;7.028;2023-12-14T09:46:53;33.27;;;10.10;;
71503;SDS011;59323;50.874;7.028;2023-12-14T09:49:31;29.02;;;9.15;;
71503;SDS011;59323;50.874;7.028;2023-12-14T09:52:04;34.53;;;10.75;;
71503;SDS011;59323;50.874;7.028;2023-12-14T09:54:39;29.17;;;10.23;;
71503;SDS011;59323;50.874;7.028;2023-12-14T09:57:08;27.70;;;10.02;;
71503;SDS011;59323;50.874;7.028;2023-12-14T09:59:39;30.47;;;10.13;;
71503;SDS011;59323;50.874;7.028;2023-12-14T10:02:18;32.78;;;10.52;;
71503;SDS011;59323;50.874;7.028;2023-12-14T10:05:25;36.33;;;10.30;;
71503;SDS011;59323;50.874;7.028;2023-12-14T10:07:59;31.27;;;10.07;;
71503;SDS011;59323;50.874;7.028;2023-12-14T10:10:35;31.75;;;10.35;;
71503;SDS011;59323;50.874;7.028;2023-12-14T10:13:02;33.53;;;11.40;;
71503;SDS011;59323;50.874;7.028;2023-12-14T10:15:48;32.10;;;10.73;;
71503;SDS011;59323;50.874;7.028;2023-12-14T10:18:23;34.15;;;10.68;;
71503;SDS011;59323;50.874;7.028;2023-12-14T10:20:59;32.13;;;10.00;;
71503;SDS011;59323;50.874;7.028;2023-12-14T10:23:27;29.77;;;9.70;;
71503;SDS011;59323;50.874;7.028;2023-12-14T10:25:56;27.77;;;9.43;;
71503;SDS011;59323;50.874;7.028;2023-12-14T10:28:22;27.83;;;9.30;;
71503;SDS011;59323;50.874;7.028;2023-12-14T10:30:58;29.48;;;9.40;;
71503;SDS011;59323;50.874;7.028;2023-12-14T10:33:37;28.08;;;9.40;;
71503;SDS011;59323;50.874;7.028;2023-12-14T10:36:05;28.60;;;9.60;;
71503;SDS011;59323;50.874;7.028;2023-12-14T10:38:43;29.00;;;9.60;;
71503;SDS011;59323;50.874;7.028;2023-12-14T10:41:14;27.00;;;9.60;;
71503;SDS011;59323;50.874;7.028;2023-12-14T10:43:46;30.23;;;9.93;;
71503;SDS011;59323;50.874;7.028;2023-12-14T10:46:36;28.40;;;9.27;;
71503;SDS011;59323;50.874;7.028;2023-12-14T10:49:05;25.98;;;8.80;;
71503;SDS011;59323;50.874;7.028;2023-12-14T10:51:31;28.40;;;9.67;;
71503;SDS011;59323;50.874;7.028;2023-12-14T10:53:58;27.45;;;9.05;;
71503;SDS011;59323;50.874;7.028;2023-12-14T10:56:27;27.27;;;9.00;;
71503;SDS011;59323;50.874;7.028;2023-12-14T10:58:54;25.30;;;9.00;;
71503;SDS011;59323;50.874;7.028;2023-12-14T11:01:24;29.85;;;9.25;;
71503;SDS011;59323;50.874;7.028;2023-12-14T11:03:50;28.27;;;9.25;;
71503;SDS011;59323;50.874;7.028;2023-12-14T11:08:56;27.70;;;9.68;;
71503;SDS011;59323;50.874;7.028;2023-12-14T11:11:27;24.63;;;9.13;;
71503;SDS011;59323;50.874;7.028;2023-12-14T11:14:02;31.38;;;10.77;;
71503;SDS011;59323;50.874;7.028;2023-12-14T11:16:32;30.52;;;10.20;;
71503;SDS011;59323;50.874;7.028;2023-12-14T11:24:39;27.00;;;9.57;;
71503;SDS011;59323;50.874;7.028;2023-12-14T11:27:08;35.63;;;11.88;;
71503;SDS011;59323;50.874;7.028;2023-12-14T11:29:37;38.70;;;11.77;;
71503;SDS011;59323;50.874;7.028;2023-12-14T11:32:05;34.70;;;11.60;;
71503;SDS011;59323;50.874;7.028;2023-12-14T11:34:32;41.10;;;12.88;;
71503;SDS011;59323;50.874;7.028;2023-12-14T11:36:57;38.33;;;13.00;;
71503;SDS011;59323;50.874;7.028;2023-12-14T11:39:23;41.55;;;13.57;;
71503;SDS011;59323;50.874;7.028;2023-12-14T11:44:44;36.50;;;12.52;;
71503;SDS011;59323;50.874;7.028;2023-12-14T11:47:09;40.83;;;13.50;;
71503;SDS011;59323;50.874;7.028;2023-12-14T11:49:35;32.43;;;12.33;;
71503;SDS011;59323;50.874;7.028;2023-12-14T11:52:02;38.03;;;13.55;;
71503;SDS011;59323;50.874;7.028;2023-12-14T11:54:29;37.00;;;12.10;;
71503;SDS011;59323;50.874;7.028;2023-12-14T11:56:55;36.10;;;12.77;;
71503;SDS011;59323;50.874;7.028;2023-12-14T11:59:20;38.13;;;13.57;;
71503;SDS011;59323;50.874;7.028;2023-12-14T12:01:59;36.55;;;13.38;;
71503;SDS011;59323;50.874;7.028;2023-12-14T12:04:25;34.17;;;12.80;;
71503;SDS011;59323;50.874;7.028;2023-12-14T12:07:10;35.53;;;12.87;;
71503;SDS011;59323;50.874;7.028;2023-12-14T12:09:42;34.10;;;13.02;;
71503;SDS011;59323;50.874;7.028;2023-12-14T12:12:09;34.88;;;11.63;;
71503;SDS011;59323;50.874;7.028;2023-12-14T12:14:36;35.78;;;12.35;;
71503;SDS011;59323;50.874;7.028;2023-12-14T12:17:03;32.38;;;11.98;;
71503;SDS011;59323;50.874;7.028;2023-12-14T12:19:40;36.47;;;12.10;;
71503;SDS011;59323;50.874;7.028;2023-12-14T12:22:07;31.65;;;10.88;;
71503;SDS011;59323;50.874;7.028;2023-12-14T12:24:33;32.83;;;12.07;;
71503;SDS011;59323;50.874;7.028;2023-12-14T12:26:59;27.45;;;10.90;;
71503;SDS011;59323;50.874;7.028;2023-12-14T12:29:24;30.37;;;11.17;;
71503;SDS011;59323;50.874;7.028;2023-12-14T12:31:53;29.40;;;10.63;;
71503;SDS011;59323;50.874;7.028;2023-12-14T12:34:18;26.33;;;9.90;;
71503;SDS011;59323;50.874;7.028;2023-12-14T12:36:44;27.80;;;9.90;;
71503;SDS011;59323;50.874;7.028;2023-12-14T12:39:09;28.63;;;10.63;;
71503;SDS011;59323;50.874;7.028;2023-12-14T12:41:35;26.50;;;10.50;;
71503;SDS011;59323;50.874;7.028;2023-12-14T12:44:04;28.70;;;11.52;;
71503;SDS011;59323;50.874;7.028;2023-12-14T12:46:33;28.65;;;10.77;;
71503;SDS011;59323;50.874;7.028;2023-12-14T12:49:02;29.33;;;10.27;;
71503;SDS011;59323;50.874;7.028;2023-12-14T12:51:29;29.17;;;10.57;;
71503;SDS011;59323;50.874;7.028;2023-12-14T12:53:56;31.67;;;11.57;;
71503;SDS011;59323;50.874;7.028;2023-12-14T12:56:22;28.02;;;10.13;;
71503;SDS011;59323;50.874;7.028;2023-12-14T12:58:54;29.60;;;11.50;;
71503;SDS011;59323;50.874;7.028;2023-12-14T13:01:22;30.60;;;11.83;;
71503;SDS011;59323;50.874;7.028;2023-12-14T13:03:57;31.23;;;11.27;;
71503;SDS011;59323;50.874;7.028;2023-12-14T13:06:26;31.55;;;10.55;;
71503;SDS011;59323;50.874;7.028;2023-12-14T13:08:52;27.60;;;9.98;;
71503;SDS011;59323;50.874;7.028;2023-12-14T13:11:18;26.30;;;9.50;;
71503;SDS011;59323;50.874;7.028;2023-12-14T13:13:44;28.35;;;10.38;;
71503;SDS011;59323;50.874;7.028;2023-12-14T13:16:10;24.93;;;8.90;;
71503;SDS011;59323;50.874;7.028;2023-12-14T13:18:39;29.25;;;10.68;;
71503;SDS011;59323;50.874;7.028;2023-12-14T13:21:04;25.73;;;10.43;;
71503;SDS011;59323;50.874;7.028;2023-12-14T13:23:30;26.25;;;9.38;;
71503;SDS011;59323;50.874;7.028;2023-12-14T13:25:55;26.03;;;10.10;;
71503;SDS011;59323;50.874;7.028;2023-12-14T13:28:20;25.63;;;9.87;;
71503;SDS011;59323;50.874;7.028;2023-12-14T13:30:46;24.83;;;9.37;;
71503;SDS011;59323;50.874;7.028;2023-12-14T13:33:11;24.70;;;10.20;;
71503;SDS011;59323;50.874;7.028;2023-12-14T13:35:37;23.00;;;8.87;;
71503;SDS011;59323;50.874;7.028;2023-12-14T13:38:03;25.15;;;8.63;;
71503;SDS011;59323;50.874;7.028;2023-12-14T13:40:28;23.03;;;8.03;;
71503;SDS011;59323;50.874;7.028;2023-12-14T13:42:53;21.63;;;8.63;;
71503;SDS011;59323;50.874;7.028;2023-12-14T13:45:19;19.48;;;7.40;;
71503;SDS011;59323;50.874;7.028;2023-12-14T13:47:45;18.97;;;6.70;;
71503;SDS011;59323;50.874;7.028;2023-12-14T13:50:10;19.67;;;7.33;;
71503;SDS011;59323;50.874;7.028;2023-12-14T13:52:35;20.40;;;7.68;;
71503;SDS011;59323;50.874;7.028;2023-12-14T13:55:01;18.67;;;6.93;;
71503;SDS011;59323;50.874;7.028;2023-12-14T13:57:26;17.97;;;7.07;;
71503;SDS011;59323;50.874;7.028;2023-12-14T13:59:52;17.60;;;7.10;;
71503;SDS011;59323;50.874;7.028;2023-12-14T14:02:18;19.17;;;7.40;;
71503;SDS011;59323;50.874;7.028;2023-12-14T14:04:43;22.07;;;8.10;;
71503;SDS011;59323;50.874;7.028;2023-12-14T14:07:08;23.17;;;7.50;;
71503;SDS011;59323;50.874;7.028;2023-12-14T14:09:34;18.38;;;7.18;;
71503;SDS011;59323;50.874;7.028;2023-12-14T14:11:59;19.70;;;7.13;;
71503;SDS011;59323;50.874;7.028;2023-12-14T14:14:25;19.70;;;7.73;;
71503;SDS011;59323;50.874;7.028;2023-12-14T14:16:50;19.45;;;7.63;;
71503;SDS011;59323;50.874;7.028;2023-12-14T14:19:16;19.30;;;7.80;;
71503;SDS011;59323;50.874;7.028;2023-12-14T14:21:41;21.63;;;7.87;;
71503;SDS011;59323;50.874;7.028;2023-12-14T14:24:06;19.53;;;7.47;;
71503;SDS011;59323;50.874;7.028;2023-12-14T14:26:32;24.33;;;8.10;;
71503;SDS011;59323;50.874;7.028;2023-12-14T14:28:57;20.50;;;8.00;;
71503;SDS011;59323;50.874;7.028;2023-12-14T14:31:25;19.75;;;7.70;;
71503;SDS011;59323;50.874;7.028;2023-12-14T14:33:55;21.27;;;7.93;;
71503;SDS011;59323;50.874;7.028;2023-12-14T14:36:20;20.35;;;7.70;;
71503;SDS011;59323;50.874;7.028;2023-12-14T14:38:46;21.17;;;8.52;;
71503;SDS011;59323;50.874;7.028;2023-12-14T14:41:15;20.00;;;7.40;;
71503;SDS011;59323;50.874;7.028;2023-12-14T14:43:43;19.90;;;7.22;;
71503;SDS011;59323;50.874;7.028;2023-12-14T14:46:08;19.83;;;8.17;;
71503;SDS011;59323;50.874;7.028;2023-12-14T14:48:34;21.97;;;8.50;;
71503;SDS011;59323;50.874;7.028;2023-12-14T14:50:59;25.00;;;8.52;;
71503;SDS011;59323;50.874;7.028;2023-12-14T14:53:25;20.33;;;8.10;;
71503;SDS011;59323;50.874;7.028;2023-12-14T14:55:50;22.07;;;8.83;;
71503;SDS011;59323;50.874;7.028;2023-12-14T14:58:20;22.60;;;8.23;;
71503;SDS011;59323;50.874;7.028;2023-12-14T15:00:45;18.50;;;6.83;;
71503;SDS011;59323;50.874;7.028;2023-12-14T15:03:12;20.42;;;7.68;;
71503;SDS011;59323;50.874;7.028;2023-12-14T15:05:48;22.50;;;8.15;;
71503;SDS011;59323;50.874;7.028;2023-12-14T15:08:13;17.53;;;7.23;;
71503;SDS011;59323;50.874;7.028;2023-12-14T15:10:39;18.92;;;7.15;;
71503;SDS011;59323;50.874;7.028;2023-12-14T15:13:07;18.43;;;7.00;;
71503;SDS011;59323;50.874;7.028;2023-12-14T15:15:32;16.67;;;6.22;;
71503;SDS011;59323;50.874;7.028;2023-12-14T15:17:58;18.40;;;6.20;;
71503;SDS011;59323;50.874;7.028;2023-12-14T15:20:23;15.47;;;5.33;;
71503;SDS011;59323;50.874;7.028;2023-12-14T15:22:51;19.17;;;5.67;;
71503;SDS011;59323;50.874;7.028;2023-12-14T15:25:17;14.57;;;5.22;;
71503;SDS011;59323;50.874;7.028;2023-12-14T15:27:42;13.48;;;5.07;;
71503;SDS011;59323;50.874;7.028;2023-12-14T15:30:08;16.33;;;4.93;;
71503;SDS011;59323;50.874;7.028;2023-12-14T15:32:35;14.23;;;5.03;;
71503;SDS011;59323;50.874;7.028;2023-12-14T15:35:00;14.68;;;5.07;;
71503;SDS011;59323;50.874;7.028;2023-12-14T15:37:26;13.13;;;4.47;;
71503;SDS011;59323;50.874;7.028;2023-12-14T15:39:52;17.33;;;4.82;;
71503;SDS011;59323;50.874;7.028;2023-12-14T15:42:18;13.73;;;4.60;;
71503;SDS011;59323;50.874;7.028;2023-12-14T15:44:44;15.55;;;5.68;;
71503;SDS011;59323;50.874;7.028;2023-12-14T15:47:10;15.97;;;5.53;;
71503;SDS011;59323;50.874;7.028;2023-12-14T15:49:37;16.60;;;5.45;;
71503;SDS011;59323;50.874;7.028;2023-12-14T15:52:06;18.42;;;5.90;;
71503;SDS011;59323;50.874;7.028;2023-12-14T15:54:32;16.30;;;5.30;;
71503;SDS011;59323;50.874;7.028;2023-12-14T15:56:57;17.48;;;5.93;;
71503;SDS011;59323;50.874;7.028;2023-12-14T15:59:23;18.43;;;6.20;;
71503;SDS011;59323;50.874;7.028;2023-12-14T16:01:52;15.93;;;5.70;;
71503;SDS011;59323;50.874;7.028;2023-12-14T16:04:17;17.25;;;6.13;;
71503;SDS011;59323;50.874;7.028;2023-12-14T16:06:49;16.17;;;6.00;;
71503;SDS011;59323;50.874;7.028;2023-12-14T16:09:14;16.52;;;6.25;;
71503;SDS011;59323;50.874;7.028;2023-12-14T16:11:41;16.05;;;6.00;;
71503;SDS011;59323;50.874;7.028;2023-12-14T16:14:07;17.65;;;6.63;;
71503;SDS011;59323;50.874;7.028;2023-12-14T16:16:32;16.47;;;5.53;;
71503;SDS011;59323;50.874;7.028;2023-12-14T16:18:58;15.07;;;5.43;;
71503;SDS011;59323;50.874;7.028;2023-12-14T16:21:26;16.83;;;6.20;;
71503;SDS011;59323;50.874;7.028;2023-12-14T16:23:51;14.32;;;5.35;;
71503;SDS011;59323;50.874;7.028;2023-12-14T16:26:17;16.00;;;5.67;;
71503;SDS011;59323;50.874;7.028;2023-12-14T16:28:42;20.90;;;6.75;;
71503;SDS011;59323;50.874;7.028;2023-12-14T16:31:08;15.47;;;5.40;;
71503;SDS011;59323;50.874;7.028;2023-12-14T16:33:33;14.57;;;5.80;;
71503;SDS011;59323;50.874;7.028;2023-12-14T16:36:02;16.17;;;6.10;;
71503;SDS011;59323;50.874;7.028;2023-12-14T16:38:34;15.93;;;5.93;;
71503;SDS011;59323;50.874;7.028;2023-12-14T16:41:03;14.27;;;5.70;;
71503;SDS011;59323;50.874;7.028;2023-12-14T16:43:28;15.70;;;6.40;;
71503;SDS011;59323;50.874;7.028;2023-12-14T16:45:54;18.05;;;5.85;;
71503;SDS011;59323;50.874;7.028;2023-12-14T16:48:21;18.58;;;6.05;;
71503;SDS011;59323;50.874;7.028;2023-12-14T16:50:49;16.17;;;6.07;;
71503;SDS011;59323;50.874;7.028;2023-12-14T16:53:21;17.52;;;6.75;;
71503;SDS011;59323;50.874;7.028;2023-12-14T16:55:48;15.70;;;5.90;;
71503;SDS011;59323;50.874;7.028;2023-12-14T16:58:15;16.35;;;5.78;;
71503;SDS011;59323;50.874;7.028;2023-12-14T17:00:41;17.30;;;6.63;;
71503;SDS011;59323;50.874;7.028;2023-12-14T17:03:06;21.38;;;6.93;;
71503;SDS011;59323;50.874;7.028;2023-12-14T17:05:32;18.17;;;7.17;;
71503;SDS011;59323;50.874;7.028;2023-12-14T17:07:57;17.30;;;6.40;;
71503;SDS011;59323;50.874;7.028;2023-12-14T17:10:22;19.27;;;6.20;;
71503;SDS011;59323;50.874;7.028;2023-12-14T17:12:48;14.68;;;6.32;;
71503;SDS011;59323;50.874;7.028;2023-12-14T17:15:13;17.20;;;5.30;;
71503;SDS011;59323;50.874;7.028;2023-12-14T17:17:39;17.63;;;6.57;;
71503;SDS011;59323;50.874;7.028;2023-12-14T17:20:05;16.40;;;6.38;;
71503;SDS011;59323;50.874;7.028;2023-12-14T17:22:31;18.27;;;6.80;;
71503;SDS011;59323;50.874;7.028;2023-12-14T17:25:04;18.63;;;6.65;;
71503;SDS011;59323;50.874;7.028;2023-12-14T17:27:32;18.57;;;6.77;;
71503;SDS011;59323;50.874;7.028;2023-12-14T17:29:58;16.95;;;6.50;;
71503;SDS011;59323;50.874;7.028;2023-12-14T17:32:24;17.98;;;7.10;;
71503;SDS011;59323;50.874;7.028;2023-12-14T17:34:50;17.87;;;6.90;;
71503;SDS011;59323;50.874;7.028;2023-12-14T17:37:15;20.23;;;6.90;;
71503;SDS011;59323;50.874;7.028;2023-12-14T17:39:41;22.33;;;7.63;;
71503;SDS011;59323;50.874;7.028;2023-12-14T17:42:06;18.50;;;6.73;;
71503;SDS011;59323;50.874;7.028;2023-12-14T17:44:32;17.13;;;6.37;;
71503;SDS011;59323;50.874;7.028;2023-12-14T17:46:58;19.80;;;7.47;;
71503;SDS011;59323;50.874;7.028;2023-12-14T17:49:23;19.20;;;7.10;;
71503;SDS011;59323;50.874;7.028;2023-12-14T17:51:49;20.65;;;7.68;;
71503;SDS011;59323;50.874;7.028;2023-12-14T17:54:14;19.17;;;7.53;;
71503;SDS011;59323;50.874;7.028;2023-12-14T17:56:40;18.80;;;6.80;;
71503;SDS011;59323;50.874;7.028;2023-12-14T17:59:10;21.33;;;8.03;;
71503;SDS011;59323;50.874;7.028;2023-12-14T18:01:42;20.30;;;7.53;;
71503;SDS011;59323;50.874;7.028;2023-12-14T18:04:08;19.37;;;7.13;;
71503;SDS011;59323;50.874;7.028;2023-12-14T18:06:34;19.27;;;7.25;;
71503;SDS011;59323;50.874;7.028;2023-12-14T18:09:00;20.23;;;7.57;;
71503;SDS011;59323;50.874;7.028;2023-12-14T18:11:29;16.58;;;6.53;;
71503;SDS011;59323;50.874;7.028;2023-12-14T18:13:54;21.27;;;7.97;;
71503;SDS011;59323;50.874;7.028;2023-12-14T18:16:20;19.20;;;7.50;;
71503;SDS011;59323;50.874;7.028;2023-12-14T18:18:45;19.37;;;7.07;;
71503;SDS011;59323;50.874;7.028;2023-12-14T18:21:10;18.67;;;7.13;;
71503;SDS011;59323;50.874;7.028;2023-12-14T18:23:36;23.70;;;8.50;;
71503;SDS011;59323;50.874;7.028;2023-12-14T18:26:01;20.67;;;6.70;;
71503;SDS011;59323;50.874;7.028;2023-12-14T18:28:26;18.60;;;6.57;;
71503;SDS011;59323;50.874;7.028;2023-12-14T18:30:52;21.53;;;8.13;;
71503;SDS011;59323;50.874;7.028;2023-12-14T18:33:17;23.20;;;8.00;;
71503;SDS011;59323;50.874;7.028;2023-12-14T18:35:43;23.40;;;8.10;;
71503;SDS011;59323;50.874;7.028;2023-12-14T18:38:08;20.40;;;7.50;;
71503;SDS011;59323;50.874;7.028;2023-12-14T18:40:34;18.73;;;7.35;;
71503;SDS011;59323;50.874;7.028;2023-12-14T18:43:00;21.67;;;7.33;;
71503;SDS011;59323;50.874;7.028;2023-12-14T18:45:25;19.93;;;6.60;;
71503;SDS011;59323;50.874;7.028;2023-12-14T18:47:51;20.83;;;7.60;;
71503;SDS011;59323;50.874;7.028;2023-12-14T18:50:16;20.13;;;7.10;;
71503;SDS011;59323;50.874;7.028;2023-12-14T18:52:41;21.83;;;7.47;;
71503;SDS011;59323;50.874;7.028;2023-12-14T18:55:07;18.33;;;6.88;;
71503;SDS011;59323;50.874;7.028;2023-12-14T18:57:34;17.83;;;6.60;;
71503;SDS011;59323;50.874;7.028;2023-12-14T18:59:59;18.98;;;7.03;;
71503;SDS011;59323;50.874;7.028;2023-12-14T19:02:24;18.80;;;6.50;;
71503;SDS011;59323;50.874;7.028;2023-12-14T19:04:52;18.58;;;6.20;;
71503;SDS011;59323;50.874;7.028;2023-12-14T19:07:17;19.43;;;6.87;;
71503;SDS011;59323;50.874;7.028;2023-12-14T19:09:43;17.00;;;5.93;;
71503;SDS011;59323;50.874;7.028;2023-12-14T19:12:08;17.57;;;5.67;;
71503;SDS011;59323;50.874;7.028;2023-12-14T19:14:34;19.93;;;6.97;;
71503;SDS011;59323;50.874;7.028;2023-12-14T19:17:00;15.27;;;6.35;;
71503;SDS011;59323;50.874;7.028;2023-12-14T19:19:25;16.37;;;5.90;;
71503;SDS011;59323;50.874;7.028;2023-12-14T19:21:54;18.13;;;6.90;;
71503;SDS011;59323;50.874;7.028;2023-12-14T19:24:20;16.70;;;6.07;;
71503;SDS011;59323;50.874;7.028;2023-12-14T19:26:45;16.50;;;6.20;;